Hope, New Jersey
Current Conditions -  °F | °C
As of 6:53 AM on Friday 28 Nov 2014 (Local Time) from KSMQ Reporting Station
Broken Clouds Broken Clouds  
Wind Chill: 26°   Ceiling: 4000
Heat Index: 26°   Visibility: 9mi
Dew Point: 23°   Wind: 0mph
Humidity: 88%   Direction: NA
Pressure: 30.13"   Gusts: NA
Location:  40.91°N, 74.97°W
Report Text: KSMQ 281153Z AUTO 00000KT 9SM BKN040 M03/M05 A3013 RMK AO2 SLP206 70015 I1000 I6001 T10331050 11017 21044 53013
Loading
Personal Weather Stations






























Interactive Weather Map New forecast layout! Learn more

10-Day Weather Forecast

Advertisements
Track Severe Weather on mobile